createdAt,value
2022-12-13T00:10:06.895Z,-1.8
2022-12-13T00:24:06.870Z,-2.1
2022-12-13T00:38:06.890Z,-2.4
2022-12-13T00:52:06.924Z,-2.5
2022-12-13T01:06:15.820Z,-2.4
2022-12-13T01:20:06.966Z,-2.5
2022-12-13T01:34:06.979Z,-2.4
2022-12-13T01:48:07.282Z,-2.1
2022-12-13T02:02:07.298Z,-1.3
2022-12-13T02:16:07.336Z,-1.1
2022-12-13T02:30:07.293Z,-1.2
2022-12-13T02:44:12.903Z,-1.2
2022-12-13T02:58:07.282Z,-0.8
2022-12-13T03:12:07.294Z,-0.6
2022-12-13T03:26:07.326Z,-0.5
2022-12-13T03:40:07.355Z,0.0
2022-12-13T03:54:07.297Z,-0.1
2022-12-13T04:08:21.537Z,0.0
2022-12-13T04:22:07.320Z,-0.4
2022-12-13T04:36:07.320Z,-0.6
2022-12-13T04:50:07.338Z,-0.2
2022-12-13T05:04:07.349Z,-0.1
2022-12-13T05:18:09.688Z,-0.1
2022-12-13T05:32:07.362Z,-0.4
2022-12-13T05:46:07.413Z,-0.3
2022-12-13T06:00:07.676Z,-0.3
2022-12-13T06:14:22.008Z,-0.3
2022-12-13T06:28:07.868Z,0.1
2022-12-13T06:43:07.861Z,0.2
2022-12-13T06:59:07.884Z,0.2
2022-12-13T07:14:07.868Z,0.2
2022-12-13T07:29:07.878Z,0.2
2022-12-13T07:44:07.889Z,0.4
2022-12-13T07:59:07.897Z,0.6
2022-12-13T08:14:08.041Z,0.8
2022-12-13T08:29:08.560Z,1.0
2022-12-13T08:44:08.753Z,1.5
2022-12-13T08:59:08.731Z,2.0
2022-12-13T09:14:08.759Z,2.6
2022-12-13T09:29:10.501Z,3.0
2022-12-13T09:44:31.456Z,3.0
2022-12-13T09:59:08.760Z,2.8
2022-12-13T10:14:08.792Z,2.8
2022-12-13T10:29:08.813Z,2.7
2022-12-13T10:45:08.873Z,2.9
2022-12-13T11:00:08.972Z,3.3
2022-12-13T11:15:09.145Z,3.8
2022-12-13T11:30:09.037Z,3.7
2022-12-13T11:45:09.063Z,3.3
2022-12-13T12:01:09.090Z,3.5
2022-12-13T12:16:09.179Z,3.7
2022-12-13T12:31:09.348Z,3.9
2022-12-13T12:46:09.390Z,3.9
2022-12-13T13:01:09.249Z,3.5
2022-12-13T13:16:09.371Z,3.3
2022-12-13T13:31:09.557Z,3.2
2022-12-13T13:46:09.516Z,3.2
2022-12-13T14:01:09.494Z,3.1
2022-12-13T14:16:11.981Z,3.1
2022-12-13T14:31:09.606Z,2.8
2022-12-13T14:46:09.698Z,2.5
2022-12-13T15:01:09.642Z,2.5
2022-12-13T15:16:10.135Z,2.3
2022-12-13T15:32:09.683Z,2.2
2022-12-13T15:47:09.626Z,2.0
2022-12-13T16:02:09.687Z,1.8
2022-12-13T16:16:10.076Z,1.7
2022-12-13T16:30:09.765Z,2.0
2022-12-13T16:44:09.868Z,2.1
2022-12-13T16:58:09.934Z,1.9
2022-12-13T17:12:09.937Z,1.8
2022-12-13T17:26:09.946Z,1.8
2022-12-13T17:40:09.963Z,1.8
2022-12-13T17:54:10.007Z,1.7
2022-12-13T18:08:10.003Z,1.5
2022-12-13T18:22:09.971Z,1.5
2022-12-13T18:36:09.970Z,1.4
2022-12-13T18:50:10.080Z,1.4
2022-12-13T19:04:10.279Z,1.7
2022-12-13T19:18:10.239Z,1.7
2022-12-13T19:32:10.356Z,1.5
2022-12-13T19:46:10.404Z,1.3
2022-12-13T20:01:10.431Z,1.4
2022-12-13T20:15:10.439Z,1.4
2022-12-13T20:29:10.384Z,1.3
2022-12-13T20:43:10.380Z,1.4
2022-12-13T20:57:10.420Z,1.5
2022-12-13T21:11:10.387Z,1.6
2022-12-13T21:25:10.423Z,1.8
2022-12-13T21:39:10.425Z,1.7
2022-12-13T21:53:10.417Z,1.5
2022-12-13T22:07:10.423Z,1.6
2022-12-13T22:21:10.427Z,1.6
2022-12-13T22:35:10.411Z,1.6
2022-12-13T22:49:10.415Z,1.7
2022-12-13T23:03:10.485Z,1.7
2022-12-13T23:17:10.451Z,1.6
2022-12-13T23:31:10.606Z,1.7
2022-12-13T23:45:10.700Z,1.8
2022-12-13T23:59:10.665Z,1.8
